sensor_id;sensor_type;location;lat;lon;timestamp;P1;durP1;ratioP1;P2;durP2;ratioP2
5085;SDS011;4715;51.660;7.082;2024-03-06T00:00:00;5.03;;;4.57;;
5085;SDS011;4715;51.660;7.082;2024-03-06T00:02:22;8.03;;;6.70;;
5085;SDS011;4715;51.660;7.082;2024-03-06T00:04:45;5.50;;;5.00;;
5085;SDS011;4715;51.660;7.082;2024-03-06T00:07:10;5.97;;;4.70;;
5085;SDS011;4715;51.660;7.082;2024-03-06T00:09:32;6.07;;;5.57;;
5085;SDS011;4715;51.660;7.082;2024-03-06T00:11:54;5.37;;;4.87;;
5085;SDS011;4715;51.660;7.082;2024-03-06T00:14:16;8.10;;;6.43;;
5085;SDS011;4715;51.660;7.082;2024-03-06T00:16:38;7.70;;;6.07;;
5085;SDS011;4715;51.660;7.082;2024-03-06T00:19:00;7.03;;;6.07;;
5085;SDS011;4715;51.660;7.082;2024-03-06T00:21:22;7.83;;;5.67;;
5085;SDS011;4715;51.660;7.082;2024-03-06T00:23:45;7.97;;;5.93;;
5085;SDS011;4715;51.660;7.082;2024-03-06T00:26:07;7.40;;;5.90;;
5085;SDS011;4715;51.660;7.082;2024-03-06T00:28:30;7.47;;;6.20;;
5085;SDS011;4715;51.660;7.082;2024-03-06T00:30:52;7.00;;;5.50;;
5085;SDS011;4715;51.660;7.082;2024-03-06T00:33:14;7.80;;;6.43;;
5085;SDS011;4715;51.660;7.082;2024-03-06T00:35:35;6.33;;;5.73;;
5085;SDS011;4715;51.660;7.082;2024-03-06T00:37:57;7.13;;;5.00;;
5085;SDS011;4715;51.660;7.082;2024-03-06T00:40:26;8.40;;;6.50;;
5085;SDS011;4715;51.660;7.082;2024-03-06T00:42:50;6.73;;;6.10;;
5085;SDS011;4715;51.660;7.082;2024-03-06T00:45:12;7.77;;;6.40;;
5085;SDS011;4715;51.660;7.082;2024-03-06T00:47:34;7.70;;;6.70;;
5085;SDS011;4715;51.660;7.082;2024-03-06T00:49:56;6.40;;;5.80;;
5085;SDS011;4715;51.660;7.082;2024-03-06T00:52:18;9.43;;;6.90;;
5085;SDS011;4715;51.660;7.082;2024-03-06T00:54:41;7.40;;;6.23;;
5085;SDS011;4715;51.660;7.082;2024-03-06T00:57:04;7.53;;;6.37;;
5085;SDS011;4715;51.660;7.082;2024-03-06T00:59:26;7.50;;;6.70;;
5085;SDS011;4715;51.660;7.082;2024-03-06T01:01:48;6.90;;;5.60;;
5085;SDS011;4715;51.660;7.082;2024-03-06T01:04:11;6.20;;;5.60;;
5085;SDS011;4715;51.660;7.082;2024-03-06T01:06:33;6.37;;;5.47;;
5085;SDS011;4715;51.660;7.082;2024-03-06T01:08:55;6.57;;;5.87;;
5085;SDS011;4715;51.660;7.082;2024-03-06T01:11:18;9.40;;;6.10;;
5085;SDS011;4715;51.660;7.082;2024-03-06T01:13:41;5.73;;;5.23;;
5085;SDS011;4715;51.660;7.082;2024-03-06T01:16:03;6.60;;;5.90;;
5085;SDS011;4715;51.660;7.082;2024-03-06T01:18:28;6.70;;;5.47;;
5085;SDS011;4715;51.660;7.082;2024-03-06T01:20:50;7.27;;;6.13;;
5085;SDS011;4715;51.660;7.082;2024-03-06T01:23:12;7.43;;;5.90;;
5085;SDS011;4715;51.660;7.082;2024-03-06T01:25:36;11.30;;;7.63;;
5085;SDS011;4715;51.660;7.082;2024-03-06T01:28:00;8.90;;;7.40;;
5085;SDS011;4715;51.660;7.082;2024-03-06T01:30:23;9.30;;;6.70;;
5085;SDS011;4715;51.660;7.082;2024-03-06T01:32:45;9.57;;;6.70;;
5085;SDS011;4715;51.660;7.082;2024-03-06T01:35:07;9.33;;;7.43;;
5085;SDS011;4715;51.660;7.082;2024-03-06T01:37:29;6.70;;;5.80;;
5085;SDS011;4715;51.660;7.082;2024-03-06T01:39:51;8.10;;;6.37;;
5085;SDS011;4715;51.660;7.082;2024-03-06T01:42:12;5.47;;;4.83;;
5085;SDS011;4715;51.660;7.082;2024-03-06T01:44:34;7.70;;;6.20;;
5085;SDS011;4715;51.660;7.082;2024-03-06T01:46:58;6.13;;;5.53;;
5085;SDS011;4715;51.660;7.082;2024-03-06T01:49:19;10.40;;;6.20;;
5085;SDS011;4715;51.660;7.082;2024-03-06T01:51:42;6.17;;;5.20;;
5085;SDS011;4715;51.660;7.082;2024-03-06T01:54:09;6.57;;;5.27;;
5085;SDS011;4715;51.660;7.082;2024-03-06T01:56:32;6.63;;;5.60;;
5085;SDS011;4715;51.660;7.082;2024-03-06T01:58:55;6.95;;;6.25;;
5085;SDS011;4715;51.660;7.082;2024-03-06T02:01:17;9.37;;;6.90;;
5085;SDS011;4715;51.660;7.082;2024-03-06T02:03:41;8.03;;;6.23;;
5085;SDS011;4715;51.660;7.082;2024-03-06T02:06:04;6.13;;;5.40;;
5085;SDS011;4715;51.660;7.082;2024-03-06T02:08:27;7.00;;;5.40;;
5085;SDS011;4715;51.660;7.082;2024-03-06T02:10:49;6.50;;;5.60;;
5085;SDS011;4715;51.660;7.082;2024-03-06T02:13:13;5.30;;;4.90;;
5085;SDS011;4715;51.660;7.082;2024-03-06T02:15:36;6.60;;;5.40;;
5085;SDS011;4715;51.660;7.082;2024-03-06T02:17:58;6.10;;;4.93;;
5085;SDS011;4715;51.660;7.082;2024-03-06T02:20:26;4.40;;;4.00;;
5085;SDS011;4715;51.660;7.082;2024-03-06T02:22:48;5.73;;;5.00;;
5085;SDS011;4715;51.660;7.082;2024-03-06T02:25:09;4.70;;;4.30;;
5085;SDS011;4715;51.660;7.082;2024-03-06T02:27:32;5.17;;;4.67;;
5085;SDS011;4715;51.660;7.082;2024-03-06T02:29:54;4.67;;;4.30;;
5085;SDS011;4715;51.660;7.082;2024-03-06T02:32:16;5.13;;;4.73;;
5085;SDS011;4715;51.660;7.082;2024-03-06T02:34:38;5.47;;;4.47;;
5085;SDS011;4715;51.660;7.082;2024-03-06T02:37:04;3.93;;;3.63;;
5085;SDS011;4715;51.660;7.082;2024-03-06T02:39:27;4.30;;;4.00;;
5085;SDS011;4715;51.660;7.082;2024-03-06T02:41:49;4.40;;;4.00;;
5085;SDS011;4715;51.660;7.082;2024-03-06T02:44:11;5.17;;;4.20;;
5085;SDS011;4715;51.660;7.082;2024-03-06T02:46:33;5.43;;;3.97;;
5085;SDS011;4715;51.660;7.082;2024-03-06T02:48:55;7.43;;;5.17;;
5085;SDS011;4715;51.660;7.082;2024-03-06T02:51:17;5.77;;;5.17;;
5085;SDS011;4715;51.660;7.082;2024-03-06T02:53:41;4.47;;;4.10;;
5085;SDS011;4715;51.660;7.082;2024-03-06T02:56:03;6.73;;;5.60;;
5085;SDS011;4715;51.660;7.082;2024-03-06T02:58:26;6.50;;;4.70;;
5085;SDS011;4715;51.660;7.082;2024-03-06T03:00:51;5.90;;;4.77;;
5085;SDS011;4715;51.660;7.082;2024-03-06T03:03:13;6.93;;;5.90;;
5085;SDS011;4715;51.660;7.082;2024-03-06T03:05:35;5.30;;;4.80;;
5085;SDS011;4715;51.660;7.082;2024-03-06T03:07:57;6.03;;;5.43;;
5085;SDS011;4715;51.660;7.082;2024-03-06T03:10:20;7.20;;;5.63;;
5085;SDS011;4715;51.660;7.082;2024-03-06T03:12:44;6.23;;;4.73;;
5085;SDS011;4715;51.660;7.082;2024-03-06T03:15:06;5.53;;;5.03;;
5085;SDS011;4715;51.660;7.082;2024-03-06T03:17:29;6.93;;;5.40;;
5085;SDS011;4715;51.660;7.082;2024-03-06T03:19:54;6.60;;;4.43;;
5085;SDS011;4715;51.660;7.082;2024-03-06T03:22:17;6.40;;;5.53;;
5085;SDS011;4715;51.660;7.082;2024-03-06T03:24:38;6.30;;;5.70;;
5085;SDS011;4715;51.660;7.082;2024-03-06T03:27:04;6.40;;;5.80;;
5085;SDS011;4715;51.660;7.082;2024-03-06T03:29:26;7.67;;;5.00;;
5085;SDS011;4715;51.660;7.082;2024-03-06T03:31:48;5.40;;;4.90;;
5085;SDS011;4715;51.660;7.082;2024-03-06T03:34:12;5.50;;;4.90;;
5085;SDS011;4715;51.660;7.082;2024-03-06T03:36:39;5.20;;;4.63;;
5085;SDS011;4715;51.660;7.082;2024-03-06T03:39:02;8.20;;;5.33;;
5085;SDS011;4715;51.660;7.082;2024-03-06T03:41:24;5.67;;;4.50;;
5085;SDS011;4715;51.660;7.082;2024-03-06T03:43:48;6.27;;;5.50;;
5085;SDS011;4715;51.660;7.082;2024-03-06T03:46:10;5.70;;;4.30;;
5085;SDS011;4715;51.660;7.082;2024-03-06T03:48:33;7.10;;;5.60;;
5085;SDS011;4715;51.660;7.082;2024-03-06T03:50:56;5.10;;;4.43;;
5085;SDS011;4715;51.660;7.082;2024-03-06T03:53:19;5.27;;;4.37;;
5085;SDS011;4715;51.660;7.082;2024-03-06T03:55:40;4.90;;;4.50;;
5085;SDS011;4715;51.660;7.082;2024-03-06T03:58:02;4.97;;;4.43;;
5085;SDS011;4715;51.660;7.082;2024-03-06T04:00:29;5.13;;;4.63;;
5085;SDS011;4715;51.660;7.082;2024-03-06T04:02:52;5.17;;;4.67;;
5085;SDS011;4715;51.660;7.082;2024-03-06T04:05:14;8.00;;;4.97;;
5085;SDS011;4715;51.660;7.082;2024-03-06T04:07:36;5.87;;;5.10;;
5085;SDS011;4715;51.660;7.082;2024-03-06T04:10:01;5.87;;;4.93;;
5085;SDS011;4715;51.660;7.082;2024-03-06T04:12:22;5.60;;;5.10;;
5085;SDS011;4715;51.660;7.082;2024-03-06T04:14:45;6.90;;;5.57;;
5085;SDS011;4715;51.660;7.082;2024-03-06T04:17:09;6.70;;;5.53;;
5085;SDS011;4715;51.660;7.082;2024-03-06T04:19:31;8.10;;;5.97;;
5085;SDS011;4715;51.660;7.082;2024-03-06T04:21:53;11.03;;;6.67;;
5085;SDS011;4715;51.660;7.082;2024-03-06T04:24:14;8.80;;;6.50;;
5085;SDS011;4715;51.660;7.082;2024-03-06T04:26:36;8.40;;;6.20;;
5085;SDS011;4715;51.660;7.082;2024-03-06T04:28:58;7.37;;;5.70;;
5085;SDS011;4715;51.660;7.082;2024-03-06T04:31:20;7.17;;;5.57;;
5085;SDS011;4715;51.660;7.082;2024-03-06T04:33:43;7.93;;;6.87;;
5085;SDS011;4715;51.660;7.082;2024-03-06T04:36:06;7.67;;;5.83;;
5085;SDS011;4715;51.660;7.082;2024-03-06T04:38:34;6.97;;;5.70;;
5085;SDS011;4715;51.660;7.082;2024-03-06T04:40:56;7.60;;;6.07;;
5085;SDS011;4715;51.660;7.082;2024-03-06T04:43:19;7.80;;;6.37;;
5085;SDS011;4715;51.660;7.082;2024-03-06T04:45:42;9.20;;;7.00;;
5085;SDS011;4715;51.660;7.082;2024-03-06T04:48:04;7.73;;;6.17;;
5085;SDS011;4715;51.660;7.082;2024-03-06T04:50:29;8.70;;;7.03;;
5085;SDS011;4715;51.660;7.082;2024-03-06T04:52:52;7.53;;;6.80;;
5085;SDS011;4715;51.660;7.082;2024-03-06T04:55:14;10.53;;;7.03;;
5085;SDS011;4715;51.660;7.082;2024-03-06T04:57:42;9.37;;;7.50;;
5085;SDS011;4715;51.660;7.082;2024-03-06T05:00:05;8.37;;;6.50;;
5085;SDS011;4715;51.660;7.082;2024-03-06T05:02:28;6.63;;;5.63;;
5085;SDS011;4715;51.660;7.082;2024-03-06T05:04:50;9.30;;;7.13;;
5085;SDS011;4715;51.660;7.082;2024-03-06T05:07:14;8.20;;;7.20;;
5085;SDS011;4715;51.660;7.082;2024-03-06T05:09:36;7.50;;;6.43;;
5085;SDS011;4715;51.660;7.082;2024-03-06T05:11:57;7.30;;;6.53;;
5085;SDS011;4715;51.660;7.082;2024-03-06T05:14:19;6.53;;;5.83;;
5085;SDS011;4715;51.660;7.082;2024-03-06T05:16:41;7.37;;;5.77;;
5085;SDS011;4715;51.660;7.082;2024-03-06T05:19:03;6.80;;;5.50;;
5085;SDS011;4715;51.660;7.082;2024-03-06T05:21:25;6.53;;;5.90;;
5085;SDS011;4715;51.660;7.082;2024-03-06T05:23:48;7.00;;;5.03;;
5085;SDS011;4715;51.660;7.082;2024-03-06T05:26:10;5.73;;;5.23;;
5085;SDS011;4715;51.660;7.082;2024-03-06T05:28:32;6.80;;;4.97;;
5085;SDS011;4715;51.660;7.082;2024-03-06T05:30:54;6.60;;;5.10;;
5085;SDS011;4715;51.660;7.082;2024-03-06T05:33:16;5.53;;;4.50;;
5085;SDS011;4715;51.660;7.082;2024-03-06T05:35:38;5.90;;;5.00;;
5085;SDS011;4715;51.660;7.082;2024-03-06T05:38:03;5.23;;;4.33;;
5085;SDS011;4715;51.660;7.082;2024-03-06T05:40:28;5.53;;;4.30;;
5085;SDS011;4715;51.660;7.082;2024-03-06T05:42:55;7.93;;;6.40;;
5085;SDS011;4715;51.660;7.082;2024-03-06T05:45:16;15.17;;;11.47;;
5085;SDS011;4715;51.660;7.082;2024-03-06T05:47:38;13.50;;;10.00;;
5085;SDS011;4715;51.660;7.082;2024-03-06T05:50:01;11.77;;;9.80;;
5085;SDS011;4715;51.660;7.082;2024-03-06T05:52:24;16.13;;;10.63;;
5085;SDS011;4715;51.660;7.082;2024-03-06T05:54:46;10.13;;;8.70;;
5085;SDS011;4715;51.660;7.082;2024-03-06T05:57:11;11.47;;;9.00;;
5085;SDS011;4715;51.660;7.082;2024-03-06T05:59:35;10.20;;;8.00;;
5085;SDS011;4715;51.660;7.082;2024-03-06T06:01:59;9.37;;;7.73;;
5085;SDS011;4715;51.660;7.082;2024-03-06T06:04:24;8.67;;;6.40;;
5085;SDS011;4715;51.660;7.082;2024-03-06T06:06:46;9.40;;;6.37;;
5085;SDS011;4715;51.660;7.082;2024-03-06T06:09:07;12.07;;;7.03;;
5085;SDS011;4715;51.660;7.082;2024-03-06T06:11:35;6.77;;;5.87;;
5085;SDS011;4715;51.660;7.082;2024-03-06T06:13:58;7.17;;;5.90;;
5085;SDS011;4715;51.660;7.082;2024-03-06T06:16:20;8.33;;;6.30;;
5085;SDS011;4715;51.660;7.082;2024-03-06T06:18:42;7.07;;;5.90;;
5085;SDS011;4715;51.660;7.082;2024-03-06T06:21:04;5.83;;;5.30;;
5085;SDS011;4715;51.660;7.082;2024-03-06T06:23:27;7.20;;;5.43;;
5085;SDS011;4715;51.660;7.082;2024-03-06T06:25:49;6.17;;;5.53;;
5085;SDS011;4715;51.660;7.082;2024-03-06T06:28:11;7.80;;;6.23;;
5085;SDS011;4715;51.660;7.082;2024-03-06T06:30:35;6.27;;;5.67;;
5085;SDS011;4715;51.660;7.082;2024-03-06T06:32:58;6.57;;;5.90;;
5085;SDS011;4715;51.660;7.082;2024-03-06T06:35:21;7.27;;;5.93;;
5085;SDS011;4715;51.660;7.082;2024-03-06T06:37:45;5.80;;;5.30;;
5085;SDS011;4715;51.660;7.082;2024-03-06T06:40:07;7.67;;;6.43;;
5085;SDS011;4715;51.660;7.082;2024-03-06T06:42:33;6.27;;;5.60;;
5085;SDS011;4715;51.660;7.082;2024-03-06T06:44:56;7.93;;;7.13;;
5085;SDS011;4715;51.660;7.082;2024-03-06T06:47:19;7.00;;;6.30;;
5085;SDS011;4715;51.660;7.082;2024-03-06T06:49:41;8.13;;;6.60;;
5085;SDS011;4715;51.660;7.082;2024-03-06T06:52:04;6.73;;;5.97;;
5085;SDS011;4715;51.660;7.082;2024-03-06T06:54:26;6.30;;;5.70;;
5085;SDS011;4715;51.660;7.082;2024-03-06T06:56:48;6.33;;;5.73;;
5085;SDS011;4715;51.660;7.082;2024-03-06T06:59:11;6.93;;;6.33;;
5085;SDS011;4715;51.660;7.082;2024-03-06T07:01:34;6.40;;;5.80;;
5085;SDS011;4715;51.660;7.082;2024-03-06T07:03:58;7.63;;;6.40;;
5085;SDS011;4715;51.660;7.082;2024-03-06T07:06:20;8.63;;;7.73;;
5085;SDS011;4715;51.660;7.082;2024-03-06T07:08:42;9.53;;;8.50;;
5085;SDS011;4715;51.660;7.082;2024-03-06T07:11:04;8.77;;;7.67;;
5085;SDS011;4715;51.660;7.082;2024-03-06T07:13:26;9.07;;;8.27;;
5085;SDS011;4715;51.660;7.082;2024-03-06T07:15:48;8.03;;;7.20;;
5085;SDS011;4715;51.660;7.082;2024-03-06T07:18:10;7.97;;;7.17;;
5085;SDS011;4715;51.660;7.082;2024-03-06T07:20:33;10.50;;;8.47;;
5085;SDS011;4715;51.660;7.082;2024-03-06T07:22:56;13.63;;;7.90;;
5085;SDS011;4715;51.660;7.082;2024-03-06T07:25:17;10.70;;;7.90;;
5085;SDS011;4715;51.660;7.082;2024-03-06T07:27:40;9.80;;;8.33;;
5085;SDS011;4715;51.660;7.082;2024-03-06T07:30:05;10.40;;;8.13;;
5085;SDS011;4715;51.660;7.082;2024-03-06T07:32:28;10.80;;;8.50;;
5085;SDS011;4715;51.660;7.082;2024-03-06T07:34:50;7.83;;;6.87;;
5085;SDS011;4715;51.660;7.082;2024-03-06T07:37:14;9.70;;;7.57;;
5085;SDS011;4715;51.660;7.082;2024-03-06T07:39:36;8.60;;;7.00;;
5085;SDS011;4715;51.660;7.082;2024-03-06T07:41:58;9.07;;;6.73;;
5085;SDS011;4715;51.660;7.082;2024-03-06T07:44:21;6.37;;;5.77;;
5085;SDS011;4715;51.660;7.082;2024-03-06T07:46:43;7.00;;;6.30;;
5085;SDS011;4715;51.660;7.082;2024-03-06T07:49:05;6.50;;;5.97;;
5085;SDS011;4715;51.660;7.082;2024-03-06T07:51:27;6.50;;;5.30;;
5085;SDS011;4715;51.660;7.082;2024-03-06T07:53:51;6.70;;;6.10;;
5085;SDS011;4715;51.660;7.082;2024-03-06T07:56:13;7.03;;;6.33;;
5085;SDS011;4715;51.660;7.082;2024-03-06T07:58:36;6.70;;;5.90;;
5085;SDS011;4715;51.660;7.082;2024-03-06T08:00:59;7.70;;;5.60;;
5085;SDS011;4715;51.660;7.082;2024-03-06T08:03:21;7.10;;;5.83;;
5085;SDS011;4715;51.660;7.082;2024-03-06T08:05:44;6.40;;;5.03;;
5085;SDS011;4715;51.660;7.082;2024-03-06T08:08:06;9.10;;;6.60;;
5085;SDS011;4715;51.660;7.082;2024-03-06T08:10:29;6.43;;;5.80;;
5085;SDS011;4715;51.660;7.082;2024-03-06T08:12:51;8.10;;;7.03;;
5085;SDS011;4715;51.660;7.082;2024-03-06T08:15:13;8.33;;;6.10;;
5085;SDS011;4715;51.660;7.082;2024-03-06T08:17:35;7.80;;;6.87;;
5085;SDS011;4715;51.660;7.082;2024-03-06T08:19:57;6.83;;;6.23;;
5085;SDS011;4715;51.660;7.082;2024-03-06T08:22:21;8.50;;;6.37;;
5085;SDS011;4715;51.660;7.082;2024-03-06T08:24:43;5.80;;;5.20;;
5085;SDS011;4715;51.660;7.082;2024-03-06T08:27:08;6.40;;;5.77;;
5085;SDS011;4715;51.660;7.082;2024-03-06T08:29:31;6.20;;;5.47;;
5085;SDS011;4715;51.660;7.082;2024-03-06T08:31:53;8.47;;;6.90;;
5085;SDS011;4715;51.660;7.082;2024-03-06T08:34:18;7.73;;;5.77;;
5085;SDS011;4715;51.660;7.082;2024-03-06T08:36:40;7.63;;;6.80;;
5085;SDS011;4715;51.660;7.082;2024-03-06T08:39:02;7.67;;;6.27;;
5085;SDS011;4715;51.660;7.082;2024-03-06T08:41:25;8.50;;;5.87;;
5085;SDS011;4715;51.660;7.082;2024-03-06T08:43:48;7.00;;;5.90;;
5085;SDS011;4715;51.660;7.082;2024-03-06T08:46:13;10.93;;;7.40;;
5085;SDS011;4715;51.660;7.082;2024-03-06T08:48:35;17.63;;;11.13;;
5085;SDS011;4715;51.660;7.082;2024-03-06T08:50:57;13.43;;;10.07;;
5085;SDS011;4715;51.660;7.082;2024-03-06T08:53:19;13.33;;;10.50;;
5085;SDS011;4715;51.660;7.082;2024-03-06T08:55:42;15.17;;;10.17;;
5085;SDS011;4715;51.660;7.082;2024-03-06T08:58:04;15.07;;;10.17;;
5085;SDS011;4715;51.660;7.082;2024-03-06T09:00:27;13.50;;;10.70;;
5085;SDS011;4715;51.660;7.082;2024-03-06T09:02:49;15.00;;;11.07;;
5085;SDS011;4715;51.660;7.082;2024-03-06T09:05:13;16.20;;;10.93;;
5085;SDS011;4715;51.660;7.082;2024-03-06T09:07:35;14.73;;;9.67;;
5085;SDS011;4715;51.660;7.082;2024-03-06T09:09:58;13.87;;;9.57;;
5085;SDS011;4715;51.660;7.082;2024-03-06T09:12:21;13.20;;;8.77;;
5085;SDS011;4715;51.660;7.082;2024-03-06T09:14:43;13.53;;;9.30;;
5085;SDS011;4715;51.660;7.082;2024-03-06T09:17:07;14.30;;;10.30;;
5085;SDS011;4715;51.660;7.082;2024-03-06T09:22:01;21.50;;;14.33;;
5085;SDS011;4715;51.660;7.082;2024-03-06T09:24:23;20.93;;;13.20;;
5085;SDS011;4715;51.660;7.082;2024-03-06T09:26:47;20.30;;;14.00;;
5085;SDS011;4715;51.660;7.082;2024-03-06T09:29:09;24.30;;;14.93;;
5085;SDS011;4715;51.660;7.082;2024-03-06T09:31:31;22.57;;;15.80;;
5085;SDS011;4715;51.660;7.082;2024-03-06T09:33:54;22.43;;;15.23;;
5085;SDS011;4715;51.660;7.082;2024-03-06T09:36:16;25.10;;;17.80;;
5085;SDS011;4715;51.660;7.082;2024-03-06T09:38:39;28.50;;;19.43;;
5085;SDS011;4715;51.660;7.082;2024-03-06T09:41:01;36.13;;;21.10;;
5085;SDS011;4715;51.660;7.082;2024-03-06T09:43:23;36.13;;;20.80;;
5085;SDS011;4715;51.660;7.082;2024-03-06T09:45:45;39.20;;;23.27;;
5085;SDS011;4715;51.660;7.082;2024-03-06T09:48:11;33.20;;;20.90;;
5085;SDS011;4715;51.660;7.082;2024-03-06T09:50:34;29.87;;;19.63;;
5085;SDS011;4715;51.660;7.082;2024-03-06T09:53:01;30.57;;;19.27;;
5085;SDS011;4715;51.660;7.082;2024-03-06T09:55:24;32.10;;;19.53;;
5085;SDS011;4715;51.660;7.082;2024-03-06T09:57:50;35.30;;;20.17;;
5085;SDS011;4715;51.660;7.082;2024-03-06T10:00:12;29.40;;;18.53;;
5085;SDS011;4715;51.660;7.082;2024-03-06T10:02:38;34.33;;;19.13;;
5085;SDS011;4715;51.660;7.082;2024-03-06T10:05:06;31.77;;;20.13;;
5085;SDS011;4715;51.660;7.082;2024-03-06T10:07:43;31.87;;;21.33;;
5085;SDS011;4715;51.660;7.082;2024-03-06T10:10:06;32.53;;;20.30;;
5085;SDS011;4715;51.660;7.082;2024-03-06T10:12:30;36.43;;;23.90;;
5085;SDS011;4715;51.660;7.082;2024-03-06T10:14:52;38.50;;;24.30;;
5085;SDS011;4715;51.660;7.082;2024-03-06T10:17:14;31.30;;;19.93;;
5085;SDS011;4715;51.660;7.082;2024-03-06T10:19:45;34.70;;;20.60;;
5085;SDS011;4715;51.660;7.082;2024-03-06T10:22:11;42.27;;;23.97;;
5085;SDS011;4715;51.660;7.082;2024-03-06T10:24:42;37.00;;;22.10;;
5085;SDS011;4715;51.660;7.082;2024-03-06T10:27:05;40.00;;;21.70;;
5085;SDS011;4715;51.660;7.082;2024-03-06T10:29:28;36.50;;;21.83;;
5085;SDS011;4715;51.660;7.082;2024-03-06T10:31:56;47.00;;;26.70;;
5085;SDS011;4715;51.660;7.082;2024-03-06T10:34:19;40.30;;;23.17;;
5085;SDS011;4715;51.660;7.082;2024-03-06T10:36:43;35.33;;;22.30;;
5085;SDS011;4715;51.660;7.082;2024-03-06T10:39:05;42.50;;;23.13;;
5085;SDS011;4715;51.660;7.082;2024-03-06T10:41:30;40.00;;;24.40;;
5085;SDS011;4715;51.660;7.082;2024-03-06T10:43:56;34.90;;;21.30;;
5085;SDS011;4715;51.660;7.082;2024-03-06T10:46:19;42.80;;;25.40;;
5085;SDS011;4715;51.660;7.082;2024-03-06T10:48:41;38.50;;;23.70;;
5085;SDS011;4715;51.660;7.082;2024-03-06T10:51:05;31.80;;;22.13;;
5085;SDS011;4715;51.660;7.082;2024-03-06T10:53:33;40.40;;;23.90;;
5085;SDS011;4715;51.660;7.082;2024-03-06T10:55:56;39.13;;;24.10;;
5085;SDS011;4715;51.660;7.082;2024-03-06T10:58:21;55.20;;;30.10;;
5085;SDS011;4715;51.660;7.082;2024-03-06T11:00:45;57.13;;;32.30;;
5085;SDS011;4715;51.660;7.082;2024-03-06T11:03:10;54.20;;;29.80;;
5085;SDS011;4715;51.660;7.082;2024-03-06T11:05:34;46.47;;;28.07;;
5085;SDS011;4715;51.660;7.082;2024-03-06T11:07:56;40.97;;;25.77;;
5085;SDS011;4715;51.660;7.082;2024-03-06T11:10:29;37.53;;;24.23;;
5085;SDS011;4715;51.660;7.082;2024-03-06T11:12:52;38.23;;;25.47;;
5085;SDS011;4715;51.660;7.082;2024-03-06T11:15:15;37.00;;;24.30;;
5085;SDS011;4715;51.660;7.082;2024-03-06T11:17:37;37.13;;;23.27;;
5085;SDS011;4715;51.660;7.082;2024-03-06T11:20:12;42.90;;;25.00;;
5085;SDS011;4715;51.660;7.082;2024-03-06T11:28:19;42.00;;;25.20;;
5085;SDS011;4715;51.660;7.082;2024-03-06T11:30:45;39.70;;;24.00;;
5085;SDS011;4715;51.660;7.082;2024-03-06T11:33:11;30.73;;;21.10;;
5085;SDS011;4715;51.660;7.082;2024-03-06T11:35:36;35.13;;;22.30;;
5085;SDS011;4715;51.660;7.082;2024-03-06T11:37:59;35.07;;;22.47;;
5085;SDS011;4715;51.660;7.082;2024-03-06T11:40:22;34.87;;;23.70;;
5085;SDS011;4715;51.660;7.082;2024-03-06T11:42:46;35.10;;;23.63;;
5085;SDS011;4715;51.660;7.082;2024-03-06T11:45:12;35.20;;;24.03;;
5085;SDS011;4715;51.660;7.082;2024-03-06T11:50:32;28.73;;;20.17;;
5085;SDS011;4715;51.660;7.082;2024-03-06T11:52:55;27.20;;;18.80;;
5085;SDS011;4715;51.660;7.082;2024-03-06T11:55:17;21.50;;;16.60;;
5085;SDS011;4715;51.660;7.082;2024-03-06T11:57:41;24.20;;;16.43;;
5085;SDS011;4715;51.660;7.082;2024-03-06T12:00:04;25.90;;;17.60;;
5085;SDS011;4715;51.660;7.082;2024-03-06T12:02:27;25.90;;;17.13;;
5085;SDS011;4715;51.660;7.082;2024-03-06T12:04:50;22.90;;;16.70;;
5085;SDS011;4715;51.660;7.082;2024-03-06T12:07:13;20.77;;;15.50;;
5085;SDS011;4715;51.660;7.082;2024-03-06T12:09:37;20.70;;;15.63;;
5085;SDS011;4715;51.660;7.082;2024-03-06T12:11:59;24.67;;;17.50;;
5085;SDS011;4715;51.660;7.082;2024-03-06T12:14:22;25.37;;;16.33;;
5085;SDS011;4715;51.660;7.082;2024-03-06T12:16:44;25.63;;;17.03;;
5085;SDS011;4715;51.660;7.082;2024-03-06T12:19:19;24.50;;;17.17;;
5085;SDS011;4715;51.660;7.082;2024-03-06T12:21:42;28.50;;;18.43;;
5085;SDS011;4715;51.660;7.082;2024-03-06T12:24:08;30.80;;;19.03;;
5085;SDS011;4715;51.660;7.082;2024-03-06T12:26:30;33.17;;;20.67;;
5085;SDS011;4715;51.660;7.082;2024-03-06T12:28:53;31.23;;;18.90;;
5085;SDS011;4715;51.660;7.082;2024-03-06T12:31:28;33.43;;;19.63;;
5085;SDS011;4715;51.660;7.082;2024-03-06T12:33:56;32.70;;;20.00;;
5085;SDS011;4715;51.660;7.082;2024-03-06T12:36:24;27.77;;;19.17;;
5085;SDS011;4715;51.660;7.082;2024-03-06T12:38:54;32.23;;;21.53;;
5085;SDS011;4715;51.660;7.082;2024-03-06T12:41:16;29.67;;;17.93;;
5085;SDS011;4715;51.660;7.082;2024-03-06T12:43:39;26.60;;;17.90;;
5085;SDS011;4715;51.660;7.082;2024-03-06T12:46:01;26.07;;;18.83;;
5085;SDS011;4715;51.660;7.082;2024-03-06T12:48:24;27.57;;;18.60;;
5085;SDS011;4715;51.660;7.082;2024-03-06T12:50:48;29.63;;;19.50;;
5085;SDS011;4715;51.660;7.082;2024-03-06T12:53:12;29.00;;;17.40;;
5085;SDS011;4715;51.660;7.082;2024-03-06T12:55:35;33.70;;;20.53;;
5085;SDS011;4715;51.660;7.082;2024-03-06T12:57:58;31.47;;;21.43;;
5085;SDS011;4715;51.660;7.082;2024-03-06T13:00:20;34.40;;;21.23;;
5085;SDS011;4715;51.660;7.082;2024-03-06T13:02:42;26.30;;;20.43;;
5085;SDS011;4715;51.660;7.082;2024-03-06T13:05:05;28.50;;;19.43;;
5085;SDS011;4715;51.660;7.082;2024-03-06T13:07:28;25.30;;;19.40;;
5085;SDS011;4715;51.660;7.082;2024-03-06T13:09:51;26.10;;;18.23;;
5085;SDS011;4715;51.660;7.082;2024-03-06T13:12:15;20.97;;;17.00;;
5085;SDS011;4715;51.660;7.082;2024-03-06T13:14:36;25.63;;;19.57;;
5085;SDS011;4715;51.660;7.082;2024-03-06T13:16:59;21.53;;;17.83;;
5085;SDS011;4715;51.660;7.082;2024-03-06T13:19:22;26.63;;;19.00;;
5085;SDS011;4715;51.660;7.082;2024-03-06T13:21:44;25.40;;;18.07;;
5085;SDS011;4715;51.660;7.082;2024-03-06T13:24:09;24.00;;;20.13;;
5085;SDS011;4715;51.660;7.082;2024-03-06T13:26:31;27.17;;;19.47;;
5085;SDS011;4715;51.660;7.082;2024-03-06T13:28:55;27.23;;;20.97;;
5085;SDS011;4715;51.660;7.082;2024-03-06T13:31:17;29.37;;;21.30;;
5085;SDS011;4715;51.660;7.082;2024-03-06T13:33:39;22.60;;;18.77;;
5085;SDS011;4715;51.660;7.082;2024-03-06T13:36:00;25.80;;;20.10;;
5085;SDS011;4715;51.660;7.082;2024-03-06T13:38:24;27.17;;;19.60;;
5085;SDS011;4715;51.660;7.082;2024-03-06T13:40:45;26.53;;;20.20;;
5085;SDS011;4715;51.660;7.082;2024-03-06T13:43:07;23.87;;;18.20;;
5085;SDS011;4715;51.660;7.082;2024-03-06T13:45:32;23.27;;;16.87;;
5085;SDS011;4715;51.660;7.082;2024-03-06T13:47:54;23.47;;;16.50;;
5085;SDS011;4715;51.660;7.082;2024-03-06T13:50:16;22.67;;;16.83;;
5085;SDS011;4715;51.660;7.082;2024-03-06T13:52:38;18.30;;;15.03;;
5085;SDS011;4715;51.660;7.082;2024-03-06T13:55:00;19.73;;;15.57;;
5085;SDS011;4715;51.660;7.082;2024-03-06T13:57:24;18.40;;;15.03;;
5085;SDS011;4715;51.660;7.082;2024-03-06T13:59:48;17.93;;;14.10;;
5085;SDS011;4715;51.660;7.082;2024-03-06T14:02:12;19.80;;;13.43;;
5085;SDS011;4715;51.660;7.082;2024-03-06T14:04:34;14.93;;;11.80;;
5085;SDS011;4715;51.660;7.082;2024-03-06T14:06:56;16.63;;;13.33;;
5085;SDS011;4715;51.660;7.082;2024-03-06T14:09:20;15.80;;;12.50;;
5085;SDS011;4715;51.660;7.082;2024-03-06T14:11:43;16.00;;;12.30;;
5085;SDS011;4715;51.660;7.082;2024-03-06T14:14:06;14.37;;;10.93;;
5085;SDS011;4715;51.660;7.082;2024-03-06T14:16:28;13.57;;;11.10;;
5085;SDS011;4715;51.660;7.082;2024-03-06T14:18:51;10.57;;;9.27;;
5085;SDS011;4715;51.660;7.082;2024-03-06T14:21:15;10.07;;;8.40;;
5085;SDS011;4715;51.660;7.082;2024-03-06T14:23:37;12.27;;;8.57;;
5085;SDS011;4715;51.660;7.082;2024-03-06T14:25:59;8.50;;;7.70;;
5085;SDS011;4715;51.660;7.082;2024-03-06T14:28:22;10.17;;;8.03;;
5085;SDS011;4715;51.660;7.082;2024-03-06T14:30:44;9.53;;;6.70;;
5085;SDS011;4715;51.660;7.082;2024-03-06T14:33:09;7.97;;;6.80;;
5085;SDS011;4715;51.660;7.082;2024-03-06T14:35:32;7.40;;;6.70;;
5085;SDS011;4715;51.660;7.082;2024-03-06T14:37:53;5.90;;;5.40;;
5085;SDS011;4715;51.660;7.082;2024-03-06T14:40:15;7.97;;;6.57;;
5085;SDS011;4715;51.660;7.082;2024-03-06T14:42:37;5.33;;;4.77;;
5085;SDS011;4715;51.660;7.082;2024-03-06T14:44:59;5.60;;;5.13;;
5085;SDS011;4715;51.660;7.082;2024-03-06T14:47:24;4.83;;;4.43;;
5085;SDS011;4715;51.660;7.082;2024-03-06T14:49:47;5.57;;;5.07;;